createdAt,value
2022-10-11T00:00:33.529Z,8.20
2022-10-11T00:01:33.579Z,8.18
2022-10-11T00:02:33.508Z,8.17
2022-10-11T00:03:33.503Z,8.18
2022-10-11T00:04:33.826Z,8.15
2022-10-11T00:05:33.480Z,8.17
2022-10-11T00:06:33.470Z,8.14
2022-10-11T00:07:33.457Z,8.15
2022-10-11T00:08:33.472Z,8.14
2022-10-11T00:09:33.422Z,8.15
2022-10-11T00:10:33.449Z,8.17
2022-10-11T00:11:33.701Z,8.17
2022-10-11T00:12:33.431Z,8.18
2022-10-11T00:13:33.382Z,8.15
2022-10-11T00:14:33.393Z,8.17
2022-10-11T00:15:33.366Z,8.15
2022-10-11T00:16:33.392Z,8.15
2022-10-11T00:17:33.364Z,8.14
2022-10-11T00:18:33.630Z,8.12
2022-10-11T00:19:33.322Z,8.12
2022-10-11T00:20:33.316Z,8.10
2022-10-11T00:21:33.297Z,8.10
2022-10-11T00:22:33.313Z,8.08
2022-10-11T00:23:33.279Z,8.08
2022-10-11T00:24:33.274Z,8.07
2022-10-11T00:25:33.287Z,8.04
2022-10-11T00:26:33.264Z,8.03
2022-10-11T00:27:33.244Z,8.02
2022-10-11T00:28:33.432Z,8.02
2022-10-11T00:29:33.233Z,7.99
2022-10-11T00:30:33.226Z,7.99
2022-10-11T00:31:35.818Z,7.99
2022-10-11T00:32:33.186Z,7.97
2022-10-11T00:33:33.179Z,7.96
2022-10-11T00:34:33.211Z,7.97
2022-10-11T00:35:33.152Z,7.97
2022-10-11T00:36:33.146Z,7.94
2022-10-11T00:37:33.151Z,7.94
2022-10-11T00:38:33.131Z,7.93
2022-10-11T00:39:33.124Z,7.93
2022-10-11T00:40:33.136Z,7.94
2022-10-11T00:41:33.106Z,7.93
2022-10-11T00:42:33.091Z,7.93
2022-10-11T00:43:33.376Z,7.93
2022-10-11T00:44:33.058Z,7.93
2022-10-11T00:45:33.061Z,7.94
2022-10-11T00:46:33.083Z,7.93
2022-10-11T00:47:33.054Z,7.94
2022-10-11T00:48:33.021Z,7.93
2022-10-11T00:49:33.009Z,7.93
2022-10-11T00:50:32.999Z,7.96
2022-10-11T00:51:32.987Z,7.94
2022-10-11T00:52:33.007Z,7.96
2022-10-11T00:53:32.956Z,7.94
2022-10-11T00:54:32.954Z,7.93
2022-10-11T00:55:33.227Z,7.96
2022-10-11T00:56:32.972Z,7.94
2022-10-11T00:57:32.938Z,7.93
2022-10-11T00:58:32.954Z,7.94
2022-10-11T00:59:32.906Z,7.93
2022-10-11T01:00:32.887Z,7.92
2022-10-11T01:01:32.949Z,7.94
2022-10-11T01:02:33.132Z,7.94
2022-10-11T01:03:32.863Z,7.94
2022-10-11T01:04:32.881Z,7.94
2022-10-11T01:05:32.843Z,7.93
2022-10-11T01:06:32.833Z,7.93
2022-10-11T01:07:32.818Z,7.93
2022-10-11T01:08:32.810Z,7.94
2022-10-11T01:09:33.077Z,7.93
2022-10-11T01:10:33.262Z,7.92
2022-10-11T01:11:32.785Z,7.92
2022-10-11T01:12:32.775Z,7.90
2022-10-11T01:13:32.768Z,7.90
2022-10-11T01:14:32.743Z,7.90
2022-10-11T01:15:32.728Z,7.87
2022-10-11T01:16:33.064Z,7.89
2022-10-11T01:17:32.716Z,7.87
2022-10-11T01:18:32.699Z,7.84
2022-10-11T01:19:32.693Z,7.84
2022-10-11T01:20:32.678Z,7.84
2022-10-11T01:21:32.693Z,7.82
2022-10-11T01:22:32.692Z,7.81
2022-10-11T01:23:33.116Z,7.78
2022-10-11T01:24:32.646Z,7.79
2022-10-11T01:25:32.653Z,7.78
2022-10-11T01:26:32.610Z,7.81
2022-10-11T01:27:32.599Z,7.78
2022-10-11T01:28:32.642Z,7.78
2022-10-11T01:29:32.602Z,7.79
2022-10-11T01:30:32.849Z,7.78
2022-10-11T01:31:32.562Z,7.77
2022-10-11T01:32:32.548Z,7.77
2022-10-11T01:33:32.538Z,7.75
2022-10-11T01:34:32.564Z,7.75
2022-10-11T01:35:32.515Z,7.75
2022-10-11T01:36:32.504Z,7.75
2022-10-11T01:37:32.506Z,7.74
2022-10-11T01:38:32.482Z,7.72
2022-10-11T01:39:32.482Z,7.74
2022-10-11T01:40:32.489Z,7.71
2022-10-11T01:41:32.460Z,7.71
2022-10-11T01:42:32.446Z,7.71
2022-10-11T01:43:32.710Z,7.69
2022-10-11T01:44:32.481Z,7.69
2022-10-11T01:45:32.414Z,7.67
2022-10-11T01:46:32.433Z,7.69
2022-10-11T01:47:32.399Z,7.66
2022-10-11T01:48:32.385Z,7.66
2022-10-11T01:49:32.379Z,7.62
2022-10-11T01:50:32.658Z,7.62
2022-10-11T01:51:32.345Z,7.60
2022-10-11T01:52:32.411Z,7.60
2022-10-11T01:53:32.328Z,7.59
2022-10-11T01:54:56.692Z,7.58
2022-10-11T01:55:32.311Z,7.55
2022-10-11T01:56:32.297Z,7.55
2022-10-11T01:57:32.291Z,7.53
2022-10-11T01:58:32.317Z,7.52
2022-10-11T01:59:32.282Z,7.52
2022-10-11T02:00:32.250Z,7.49
2022-10-11T02:01:32.320Z,7.50
2022-10-11T02:02:32.522Z,7.49
2022-10-11T02:03:32.221Z,7.49
2022-10-11T02:04:32.230Z,7.47
2022-10-11T02:05:32.198Z,7.47
2022-10-11T02:06:32.183Z,7.47
2022-10-11T02:07:32.192Z,7.44
2022-10-11T02:08:32.161Z,7.47
2022-10-11T02:09:32.160Z,7.47
2022-10-11T02:10:32.174Z,7.45
2022-10-11T02:11:32.142Z,7.45
2022-10-11T02:12:32.134Z,7.47
2022-10-11T02:13:32.120Z,7.45
2022-10-11T02:14:32.384Z,7.44
2022-10-11T02:15:32.095Z,7.42
2022-10-11T02:16:32.109Z,7.45
2022-10-11T02:17:32.070Z,7.41
2022-10-11T02:18:32.103Z,7.41
2022-10-11T02:19:32.055Z,7.40
2022-10-11T02:20:32.050Z,7.38
2022-10-11T02:21:32.318Z,7.40
2022-10-11T02:22:32.076Z,7.38
2022-10-11T02:23:32.018Z,7.40
2022-10-11T02:24:32.007Z,7.38
2022-10-11T02:25:31.999Z,7.35
2022-10-11T02:26:31.976Z,7.35
2022-10-11T02:27:31.979Z,7.34
2022-10-11T02:28:32.359Z,7.32
2022-10-11T02:29:31.951Z,7.32
2022-10-11T02:30:31.934Z,7.29
2022-10-11T02:31:31.927Z,7.31
2022-10-11T02:32:31.909Z,7.31
2022-10-11T02:33:31.915Z,7.29
2022-10-11T02:34:31.937Z,7.31
2022-10-11T02:35:32.159Z,7.29
2022-10-11T02:36:31.871Z,7.29
2022-10-11T02:37:31.870Z,7.29
2022-10-11T02:38:31.852Z,7.27
2022-10-11T02:39:31.852Z,7.26
2022-10-11T02:40:31.850Z,7.27
2022-10-11T02:41:31.826Z,7.26
2022-10-11T02:42:32.093Z,7.26
2022-10-11T02:43:31.804Z,7.26
2022-10-11T02:44:31.793Z,7.24
2022-10-11T02:45:31.791Z,7.23
2022-10-11T02:46:31.812Z,7.22
2022-10-11T02:47:31.775Z,7.20
2022-10-11T02:48:31.767Z,7.22
2022-10-11T02:49:32.018Z,7.20
2022-10-11T02:50:31.748Z,7.20
2022-10-11T02:51:31.738Z,7.20
2022-10-11T02:52:32.010Z,7.20
2022-10-11T02:53:31.710Z,7.22
2022-10-11T02:54:31.691Z,7.19
2022-10-11T02:55:31.678Z,7.17
2022-10-11T02:56:31.688Z,7.19
2022-10-11T02:57:31.659Z,7.19
2022-10-11T02:58:31.682Z,7.15
2022-10-11T02:59:31.639Z,7.12
2022-10-11T03:00:31.622Z,7.13
2022-10-11T03:01:31.647Z,7.12
2022-10-11T03:02:31.880Z,7.07
2022-10-11T03:03:31.592Z,7.08
2022-10-11T03:04:31.607Z,7.07
2022-10-11T03:05:31.581Z,7.05
2022-10-11T03:06:31.564Z,7.07
2022-10-11T03:07:31.557Z,7.04
2022-10-11T03:08:31.545Z,7.02
2022-10-11T03:09:31.830Z,7.01
2022-10-11T03:10:31.564Z,6.99
2022-10-11T03:11:31.516Z,6.99
2022-10-11T03:12:31.492Z,6.98
2022-10-11T03:13:31.506Z,6.97
2022-10-11T03:14:31.478Z,6.95
2022-10-11T03:15:31.477Z,6.94
2022-10-11T03:16:31.798Z,6.94
2022-10-11T03:17:36.652Z,6.91
2022-10-11T03:18:31.436Z,6.90
2022-10-11T03:19:31.427Z,6.89
2022-10-11T03:20:31.414Z,6.87
2022-10-11T03:21:31.412Z,6.89
2022-10-11T03:22:31.419Z,6.86
2022-10-11T03:23:31.656Z,6.84
2022-10-11T03:24:31.371Z,6.84
2022-10-11T03:25:31.372Z,6.84
2022-10-11T03:26:31.361Z,6.83
2022-10-11T03:27:31.345Z,6.84
2022-10-11T03:28:31.426Z,6.83
2022-10-11T03:29:31.330Z,6.81
2022-10-11T03:30:31.587Z,6.83
2022-10-11T03:31:31.310Z,6.83
2022-10-11T03:32:31.283Z,6.81
2022-10-11T03:33:31.298Z,6.81
2022-10-11T03:34:31.296Z,6.80
2022-10-11T03:35:31.262Z,6.80
2022-10-11T03:36:31.242Z,6.79
2022-10-11T03:37:31.586Z,6.77
2022-10-11T03:38:31.225Z,6.77
2022-10-11T03:39:31.220Z,6.76
2022-10-11T03:40:31.225Z,6.73
2022-10-11T03:43:34.673Z,6.71
2022-10-11T03:44:35.624Z,6.69
2022-10-11T03:45:35.603Z,6.69
2022-10-11T03:46:35.587Z,6.68
2022-10-11T03:47:35.599Z,6.66
2022-10-11T03:48:35.619Z,6.66
2022-10-11T03:49:38.804Z,6.65
2022-10-11T03:50:35.560Z,6.65
2022-10-11T03:51:35.540Z,6.65
2022-10-11T03:52:35.530Z,6.62
2022-10-11T03:53:35.525Z,6.63
2022-10-11T03:54:35.547Z,6.62
2022-10-11T03:55:35.498Z,6.61
2022-10-11T03:56:35.777Z,6.59
2022-10-11T03:57:35.480Z,6.59
2022-10-11T03:58:35.466Z,6.61
2022-10-11T03:59:35.450Z,6.61
2022-10-11T04:00:35.492Z,6.58
2022-10-11T04:01:35.502Z,6.56
2022-10-11T04:02:39.069Z,6.56
2022-10-11T04:03:35.689Z,6.54
2022-10-11T04:04:35.389Z,6.54
2022-10-11T04:05:35.387Z,6.58
2022-10-11T04:06:35.395Z,6.56
2022-10-11T04:07:35.386Z,6.54
2022-10-11T04:08:35.348Z,6.54
2022-10-11T04:09:35.348Z,6.56
2022-10-11T04:10:35.622Z,6.58
2022-10-11T04:11:35.323Z,6.56
2022-10-11T04:12:35.497Z,6.56
2022-10-11T04:13:35.308Z,6.56
2022-10-11T04:14:35.289Z,6.58
2022-10-11T04:15:35.278Z,6.54
2022-10-11T04:16:35.268Z,6.54
2022-10-11T04:17:35.557Z,6.54
2022-10-11T04:18:35.283Z,6.53
2022-10-11T04:19:35.251Z,6.53
2022-10-11T04:20:35.230Z,6.51
2022-10-11T04:21:35.217Z,6.53
2022-10-11T04:22:35.201Z,6.51
2022-10-11T04:23:35.201Z,6.48
2022-10-11T04:24:35.496Z,6.47
2022-10-11T04:25:35.168Z,6.47
2022-10-11T04:26:35.171Z,6.46
2022-10-11T04:27:35.170Z,6.46
2022-10-11T04:28:35.248Z,6.44
2022-10-11T04:29:35.145Z,6.46
2022-10-11T04:30:35.142Z,6.46
2022-10-11T04:31:35.403Z,6.47
2022-10-11T04:32:35.095Z,6.47
2022-10-11T04:33:35.088Z,6.46
2022-10-11T04:34:35.069Z,6.48
2022-10-11T04:35:35.072Z,6.46
2022-10-11T04:36:35.089Z,6.50
2022-10-11T04:37:35.048Z,6.47
2022-10-11T04:38:35.310Z,6.47
2022-10-11T04:39:35.056Z,6.44
2022-10-11T04:40:35.009Z,6.47
2022-10-11T04:41:35.008Z,6.46
2022-10-11T04:42:35.012Z,6.46
2022-10-11T04:43:34.983Z,6.47
2022-10-11T04:44:34.966Z,6.47
2022-10-11T04:45:35.315Z,6.44
2022-10-11T04:46:34.945Z,6.46
2022-10-11T04:47:34.940Z,6.46
2022-10-11T04:48:34.993Z,6.44
2022-10-11T04:49:34.944Z,6.44
2022-10-11T04:50:34.912Z,6.47
2022-10-11T04:51:34.898Z,6.46
2022-10-11T04:52:35.160Z,6.47
2022-10-11T04:53:34.881Z,6.46
2022-10-11T04:54:34.915Z,6.46
2022-10-11T04:55:34.851Z,6.43
2022-10-11T04:56:34.848Z,6.43
2022-10-11T04:57:34.830Z,6.44
2022-10-11T04:58:34.821Z,6.40
2022-10-11T04:59:35.101Z,6.43
2022-10-11T05:00:34.825Z,6.41
2022-10-11T05:01:34.968Z,6.40
2022-10-11T05:02:34.842Z,6.38
2022-10-11T05:03:34.772Z,6.38
2022-10-11T05:04:34.758Z,6.38
2022-10-11T05:05:34.751Z,6.40
2022-10-11T05:06:35.049Z,6.38
2022-10-11T05:07:34.727Z,6.36
2022-10-11T05:08:34.710Z,6.35
2022-10-11T05:09:34.713Z,6.33
2022-10-11T05:10:34.705Z,6.33
2022-10-11T05:11:34.686Z,6.33
2022-10-11T05:12:34.709Z,6.32
2022-10-11T05:13:34.950Z,6.30
2022-10-11T05:14:34.652Z,6.32
2022-10-11T05:15:34.684Z,6.32
2022-10-11T05:16:34.625Z,6.32
2022-10-11T05:17:34.623Z,6.33
2022-10-11T05:18:34.668Z,6.30
2022-10-11T05:19:34.601Z,6.30
2022-10-11T05:20:34.868Z,6.30
2022-10-11T05:21:34.588Z,6.28
2022-10-11T05:22:34.563Z,6.30
2022-10-11T05:23:34.557Z,6.29
2022-10-11T05:24:34.573Z,6.29
2022-10-11T05:25:34.538Z,6.29
2022-10-11T05:26:34.529Z,6.29
2022-10-11T05:27:34.813Z,6.29
2022-10-11T05:28:34.563Z,6.29
2022-10-11T05:29:34.506Z,6.29
2022-10-11T05:30:34.522Z,6.29
2022-10-11T05:31:34.480Z,6.29
2022-10-11T05:32:34.463Z,6.28
2022-10-11T05:33:34.453Z,6.25
2022-10-11T05:34:34.719Z,6.25
2022-10-11T05:35:34.450Z,6.18
2022-10-11T05:36:34.438Z,6.16
2022-10-11T05:37:34.456Z,6.13
2022-10-11T05:38:34.409Z,6.10
2022-10-11T05:39:34.390Z,6.09
2022-10-11T05:40:34.380Z,6.06
2022-10-11T05:41:34.366Z,6.07
2022-10-11T05:42:34.379Z,6.04
2022-10-11T05:43:34.345Z,6.04
2022-10-11T05:44:34.325Z,6.06
2022-10-11T05:45:34.330Z,6.14
2022-10-11T05:46:34.354Z,6.21
2022-10-11T05:47:34.593Z,6.25
2022-10-11T05:48:34.344Z,6.29
2022-10-11T05:49:34.281Z,6.32
2022-10-11T05:50:34.274Z,6.35
2022-10-11T05:51:34.267Z,6.35
2022-10-11T05:52:34.262Z,6.40
2022-10-11T05:53:34.238Z,6.43
2022-10-11T05:54:34.564Z,6.44
2022-10-11T05:55:34.244Z,6.44
2022-10-11T05:56:34.223Z,6.47
2022-10-11T05:57:34.273Z,6.46
2022-10-11T05:58:34.179Z,6.48
2022-10-11T05:59:34.176Z,6.51
2022-10-11T06:00:34.219Z,6.53
2022-10-11T06:01:34.487Z,6.58
2022-10-11T06:02:34.144Z,6.58
2022-10-11T06:03:34.147Z,6.61
2022-10-11T06:04:34.155Z,6.63
2022-10-11T06:05:34.116Z,6.62
2022-10-11T06:06:34.136Z,6.63
2022-10-11T06:07:34.091Z,6.63
2022-10-11T06:08:34.376Z,6.65
2022-10-11T06:09:34.085Z,6.66
2022-10-11T06:10:34.090Z,6.69
2022-10-11T06:11:34.062Z,6.69
2022-10-11T06:12:34.073Z,6.71
2022-10-11T06:13:34.030Z,6.73
2022-10-11T06:14:34.023Z,6.73
2022-10-11T06:15:34.319Z,6.72
2022-10-11T06:16:34.002Z,6.71
2022-10-11T06:17:33.985Z,6.72
2022-10-11T06:18:34.006Z,6.73
2022-10-11T06:19:33.964Z,6.80
2022-10-11T06:20:33.957Z,6.84
2022-10-11T06:21:33.943Z,6.91
2022-10-11T06:22:34.208Z,6.97
2022-10-11T06:23:33.936Z,6.99
2022-10-11T06:24:33.970Z,6.99
2022-10-11T06:25:33.906Z,6.98
2022-10-11T06:26:33.907Z,6.98
2022-10-11T06:27:33.896Z,7.02
2022-10-11T06:28:33.934Z,7.07
2022-10-11T06:29:34.166Z,7.13
2022-10-11T06:30:33.874Z,7.19
2022-10-11T06:31:33.874Z,7.23
2022-10-11T06:32:33.896Z,7.27
2022-10-11T06:33:33.850Z,7.29
2022-10-11T06:34:33.818Z,7.37
2022-10-11T06:35:33.809Z,7.42
2022-10-11T06:36:34.105Z,7.50
2022-10-11T06:37:33.774Z,7.56
2022-10-11T06:38:33.754Z,7.66
2022-10-11T06:39:33.757Z,7.77
2022-10-11T06:40:33.732Z,7.87
2022-10-11T06:41:33.731Z,7.96
2022-10-11T06:42:33.755Z,8.03
2022-10-11T06:43:34.023Z,8.04
2022-10-11T06:44:33.698Z,8.08
2022-10-11T06:45:33.695Z,8.14
2022-10-11T06:46:33.683Z,8.20
2022-10-11T06:47:33.670Z,8.29
2022-10-11T06:48:33.696Z,8.37
2022-10-11T06:49:33.691Z,8.51
2022-10-11T06:50:57.828Z,8.63
2022-10-11T06:51:33.645Z,8.73
2022-10-11T06:52:33.610Z,8.75
2022-10-11T06:53:33.610Z,8.66
2022-10-11T06:54:33.669Z,8.73
2022-10-11T06:55:33.600Z,8.81
2022-10-11T06:56:33.574Z,8.73
2022-10-11T06:57:33.847Z,8.73
2022-10-11T06:58:33.564Z,8.79
2022-10-11T06:59:33.549Z,8.94
2022-10-11T07:00:33.575Z,9.13
2022-10-11T07:01:33.633Z,9.31
2022-10-11T07:02:33.516Z,9.49
2022-10-11T07:03:33.493Z,9.63
2022-10-11T07:04:33.810Z,9.78
2022-10-11T07:05:33.539Z,9.93
2022-10-11T07:06:33.862Z,10.06
2022-10-11T07:07:33.452Z,10.18
2022-10-11T07:08:33.462Z,10.26
2022-10-11T07:09:33.462Z,10.30
2022-10-11T07:10:33.409Z,10.24
2022-10-11T07:11:33.701Z,10.21
2022-10-11T07:12:33.449Z,10.19
2022-10-11T07:13:33.398Z,10.17
2022-10-11T07:14:33.400Z,10.18
2022-10-11T07:15:33.368Z,10.24
2022-10-11T07:16:33.375Z,10.25
2022-10-11T07:17:33.344Z,10.25
2022-10-11T07:18:33.722Z,10.22
2022-10-11T07:19:33.330Z,10.21
2022-10-11T07:20:33.310Z,10.17
2022-10-11T07:21:33.351Z,10.14
2022-10-11T07:22:33.370Z,10.09
2022-10-11T07:23:33.344Z,10.10
2022-10-11T07:24:33.297Z,10.14
2022-10-11T07:25:33.584Z,10.18
2022-10-11T07:26:38.570Z,10.21
2022-10-11T07:27:33.291Z,10.37
2022-10-11T07:28:33.370Z,10.47
2022-10-11T07:29:33.253Z,10.43
2022-10-11T07:30:33.282Z,10.52
2022-10-11T07:31:33.216Z,10.52
2022-10-11T07:32:33.500Z,10.53
2022-10-11T07:33:33.224Z,10.58
2022-10-11T07:34:33.166Z,10.58
2022-10-11T07:35:33.160Z,10.43
2022-10-11T07:36:33.186Z,10.26
2022-10-11T07:37:33.144Z,10.07
2022-10-11T07:38:33.111Z,9.81
2022-10-11T07:39:33.430Z,9.81
2022-10-11T07:40:33.242Z,9.91
2022-10-11T07:41:33.108Z,10.04
2022-10-11T07:42:33.156Z,10.28
2022-10-11T07:43:33.081Z,10.62
2022-10-11T07:44:33.090Z,10.94
2022-10-11T07:45:33.057Z,11.27
2022-10-11T07:46:33.349Z,11.54
2022-10-11T07:47:33.062Z,11.71
2022-10-11T07:48:33.071Z,11.94
2022-10-11T07:49:33.015Z,11.86
2022-10-11T07:50:32.994Z,11.99
2022-10-11T07:51:33.084Z,12.09
2022-10-11T07:52:32.999Z,12.16
2022-10-11T07:53:33.266Z,12.46
2022-10-11T07:54:33.031Z,12.63
2022-10-11T07:55:32.990Z,12.67
2022-10-11T07:56:32.929Z,12.85
2022-10-11T07:57:32.981Z,12.99
2022-10-11T07:58:32.923Z,13.04
2022-10-11T07:59:32.891Z,13.15
2022-10-11T08:00:33.259Z,13.09
2022-10-11T08:01:32.936Z,13.03
2022-10-11T08:02:32.861Z,13.21
2022-10-11T08:03:32.883Z,13.40
2022-10-11T08:04:32.850Z,13.55
2022-10-11T08:05:32.848Z,13.61
2022-10-11T08:06:33.102Z,13.74
2022-10-11T08:07:33.083Z,13.88
2022-10-11T08:08:32.831Z,14.10
2022-10-11T08:09:32.801Z,14.29
2022-10-11T08:10:32.813Z,14.50
2022-10-11T08:11:32.851Z,14.61
2022-10-11T08:12:32.815Z,14.72
2022-10-11T08:13:32.754Z,14.83
2022-10-11T08:14:33.837Z,14.91
2022-10-11T08:15:32.716Z,14.95
2022-10-11T08:16:32.744Z,15.06
2022-10-11T08:17:32.696Z,15.12
2022-10-11T08:18:32.777Z,15.17
2022-10-11T08:19:32.689Z,15.28
2022-10-11T08:20:32.689Z,15.41
2022-10-11T08:21:32.748Z,15.61
2022-10-11T08:22:32.704Z,15.66
2022-10-11T08:23:32.652Z,15.70
2022-10-11T08:24:37.396Z,15.67
2022-10-11T08:25:32.658Z,15.75
2022-10-11T08:26:32.973Z,15.82
2022-10-11T08:27:32.603Z,15.86
2022-10-11T08:28:32.657Z,15.94
2022-10-11T08:29:32.586Z,16.06
2022-10-11T08:30:32.617Z,16.22
2022-10-11T08:31:32.585Z,16.38
2022-10-11T08:32:32.555Z,16.53
2022-10-11T08:33:32.569Z,16.63
2022-10-11T08:34:32.613Z,16.70
2022-10-11T08:35:32.527Z,16.59
2022-10-11T08:36:32.548Z,16.38
2022-10-11T08:37:32.526Z,16.30
2022-10-11T08:38:32.844Z,16.31
2022-10-11T08:39:32.485Z,16.40
2022-10-11T08:40:35.271Z,16.48
2022-10-11T08:41:32.486Z,16.59
2022-10-11T08:42:32.536Z,16.71
2022-10-11T08:43:32.458Z,16.80
2022-10-11T08:44:51.728Z,16.83
2022-10-11T08:45:32.401Z,16.88
2022-10-11T08:46:32.460Z,16.89
2022-10-11T08:47:32.387Z,16.89
2022-10-11T08:48:32.444Z,16.96
2022-10-11T08:49:32.394Z,17.00
2022-10-11T08:50:32.360Z,17.00
2022-10-11T08:51:32.351Z,17.04
2022-10-11T08:52:32.377Z,17.08
2022-10-11T08:53:32.340Z,17.20
2022-10-11T08:54:32.346Z,17.18
2022-10-11T08:55:32.325Z,17.28
2022-10-11T08:56:32.678Z,17.22
2022-10-11T08:57:32.656Z,17.28
2022-10-11T08:58:32.334Z,17.38
2022-10-11T08:59:32.253Z,17.46
2022-10-11T09:00:32.311Z,17.57
2022-10-11T09:01:32.318Z,17.66
2022-10-11T09:02:55.767Z,17.64
2022-10-11T09:03:32.239Z,17.67
2022-10-11T09:04:32.225Z,17.73
2022-10-11T09:05:32.221Z,17.74
2022-10-11T09:06:32.261Z,17.62
2022-10-11T09:07:32.193Z,17.64
2022-10-11T09:08:32.193Z,17.63
2022-10-11T09:09:32.179Z,17.57
2022-10-11T09:10:32.605Z,17.51
2022-10-11T09:11:32.147Z,17.40
2022-10-11T09:12:35.128Z,17.47
2022-10-11T09:13:32.118Z,17.44
2022-10-11T09:14:32.135Z,17.30
2022-10-11T09:15:32.090Z,17.23
2022-10-11T09:16:32.101Z,17.33
2022-10-11T09:17:32.078Z,17.43
2022-10-11T09:18:32.111Z,17.51
2022-10-11T09:19:32.100Z,17.63
2022-10-11T09:20:32.101Z,17.57
2022-10-11T09:21:32.021Z,17.51
2022-10-11T09:22:32.343Z,17.47
2022-10-11T09:23:32.004Z,17.46
2022-10-11T09:24:32.086Z,17.44
2022-10-11T09:25:32.005Z,17.47
2022-10-11T09:26:31.990Z,17.51
2022-10-11T09:27:57.200Z,17.69
2022-10-11T09:28:32.026Z,17.69
2022-10-11T09:29:31.990Z,17.71
2022-10-11T09:30:32.209Z,17.64
2022-10-11T09:31:32.147Z,17.71
2022-10-11T09:32:32.023Z,17.71
2022-10-11T09:33:31.966Z,17.59
2022-10-11T09:34:32.165Z,17.63
2022-10-11T09:35:31.883Z,17.54
2022-10-11T09:36:31.919Z,17.46
2022-10-11T09:37:31.873Z,17.38
2022-10-11T09:38:31.862Z,17.40
2022-10-11T09:39:31.838Z,17.44
2022-10-11T09:40:31.841Z,17.55
2022-10-11T09:41:32.169Z,17.71
2022-10-11T09:42:31.903Z,17.81
2022-10-11T09:43:31.793Z,17.88
2022-10-11T09:44:31.795Z,17.94
2022-10-11T09:45:31.776Z,17.95
2022-10-11T09:46:31.818Z,18.00
2022-10-11T09:47:31.765Z,17.95
2022-10-11T09:48:31.836Z,17.85
2022-10-11T09:49:31.743Z,17.79
2022-10-11T09:50:31.728Z,17.74
2022-10-11T09:51:31.778Z,17.70
2022-10-11T09:52:31.733Z,17.59
2022-10-11T09:53:31.733Z,17.40
2022-10-11T09:54:31.989Z,17.38
2022-10-11T09:55:31.660Z,17.50
2022-10-11T09:56:31.697Z,17.62
2022-10-11T09:57:31.654Z,17.74
2022-10-11T09:58:31.635Z,17.79
2022-10-11T09:59:31.710Z,17.79
2022-10-11T10:00:31.669Z,17.62
2022-10-11T10:01:31.679Z,17.38
2022-10-11T10:02:31.637Z,17.32
2022-10-11T10:03:31.615Z,17.44
2022-10-11T10:04:31.637Z,17.51
2022-10-11T10:05:31.596Z,17.55
2022-10-11T10:06:31.706Z,17.63
2022-10-11T10:07:31.823Z,17.74
2022-10-11T10:08:31.573Z,17.64
2022-10-11T10:09:31.547Z,17.64
2022-10-11T10:10:31.559Z,17.84
2022-10-11T10:11:31.518Z,18.13
2022-10-11T10:12:31.565Z,18.40
2022-10-11T10:13:31.481Z,18.52
2022-10-11T10:14:31.754Z,18.73
2022-10-11T10:15:31.529Z,19.06
2022-10-11T10:16:31.540Z,19.25
2022-10-11T10:17:31.442Z,19.51
2022-10-11T10:18:31.477Z,19.63
2022-10-11T10:19:31.449Z,19.88
2022-10-11T10:20:31.526Z,20.10
2022-10-11T10:21:31.402Z,20.43
2022-10-11T10:22:31.405Z,20.74
2022-10-11T10:23:31.395Z,21.13
2022-10-11T10:24:31.425Z,21.27
2022-10-11T10:25:31.344Z,21.27
2022-10-11T10:26:31.674Z,21.30
2022-10-11T10:27:31.441Z,21.26
2022-10-11T10:28:31.423Z,21.24
2022-10-11T10:29:31.329Z,21.26
2022-10-11T10:30:35.395Z,21.45
2022-10-11T10:31:32.831Z,21.64
2022-10-11T10:32:31.315Z,21.57
2022-10-11T10:33:31.340Z,21.64
2022-10-11T10:34:31.285Z,21.81
2022-10-11T10:35:31.281Z,21.92
2022-10-11T10:36:31.303Z,22.09
2022-10-11T10:37:31.261Z,22.19
2022-10-11T10:38:31.531Z,22.16
2022-10-11T10:39:31.212Z,22.09
2022-10-11T10:40:31.268Z,22.13
2022-10-11T10:41:31.203Z,22.20
2022-10-11T10:42:31.231Z,22.28
2022-10-11T10:43:31.186Z,22.32
2022-10-11T10:44:31.195Z,22.34
2022-10-11T10:45:31.895Z,22.22
2022-10-11T10:46:31.176Z,21.90
2022-10-11T10:47:31.189Z,21.66
2022-10-11T10:48:46.941Z,21.50
2022-10-11T10:50:01.094Z,21.19
2022-10-11T10:50:31.150Z,20.80
2022-10-11T10:51:32.500Z,20.59
2022-10-11T10:52:31.117Z,20.54
2022-10-11T10:53:31.071Z,20.49
2022-10-11T10:54:31.140Z,20.90
2022-10-11T10:55:31.072Z,21.26
2022-10-11T10:56:31.121Z,21.54
2022-10-11T10:57:31.139Z,21.95
2022-10-11T10:58:31.299Z,22.16
2022-10-11T10:59:31.606Z,22.32
2022-10-11T11:00:31.979Z,22.44
2022-10-11T11:01:31.168Z,22.60
2022-10-11T11:02:46.399Z,22.90
2022-10-11T11:03:31.103Z,23.05
2022-10-11T11:04:30.979Z,23.19
2022-10-11T11:05:30.938Z,23.11
2022-10-11T11:06:34.189Z,23.26
2022-10-11T11:07:30.925Z,23.31
2022-10-11T11:08:30.927Z,23.39
2022-10-11T11:09:30.964Z,23.46
2022-10-11T11:10:31.089Z,23.55
2022-10-11T11:11:31.175Z,23.49
2022-10-11T11:12:31.062Z,23.47
2022-10-11T11:13:31.005Z,23.52
2022-10-11T11:14:30.959Z,23.38
2022-10-11T11:15:33.187Z,22.44
2022-10-11T11:16:31.040Z,22.35
2022-10-11T11:17:30.853Z,22.49
2022-10-11T11:18:30.902Z,21.85
2022-10-11T11:19:30.864Z,21.34
2022-10-11T11:20:30.875Z,20.77
2022-10-11T11:21:30.941Z,20.43
2022-10-11T11:22:32.809Z,20.09
2022-10-11T11:23:31.095Z,19.80
2022-10-11T11:24:31.150Z,19.51
2022-10-11T11:25:30.824Z,19.29
2022-10-11T11:26:30.966Z,19.54
2022-10-11T11:27:30.795Z,19.66
2022-10-11T11:28:30.919Z,20.08
2022-10-11T11:29:30.702Z,20.42
2022-10-11T11:30:30.728Z,20.69
2022-10-11T11:31:30.695Z,21.14
2022-10-11T11:32:30.728Z,21.53
2022-10-11T11:33:30.656Z,21.85
2022-10-11T11:34:30.785Z,22.23
2022-10-11T11:35:29.697Z,22.41
2022-10-11T11:36:30.964Z,22.87
2022-10-11T11:37:30.668Z,23.01
2022-10-11T11:38:30.678Z,23.15
2022-10-11T11:39:30.591Z,23.22
2022-10-11T11:40:30.610Z,23.23
2022-10-11T11:41:30.615Z,23.35
2022-10-11T11:42:30.786Z,23.24
2022-10-11T11:43:30.663Z,23.24
2022-10-11T11:44:30.556Z,23.39
2022-10-11T11:45:30.518Z,23.67
2022-10-11T11:46:30.507Z,23.85
2022-10-11T11:47:30.533Z,23.86
2022-10-11T11:48:30.816Z,23.82
2022-10-11T11:49:30.541Z,23.85
2022-10-11T11:50:32.594Z,23.65
2022-10-11T11:51:31.474Z,23.71
2022-10-11T11:52:30.470Z,23.89
2022-10-11T11:53:30.435Z,24.10
2022-10-11T11:54:31.155Z,24.23
2022-10-11T11:55:30.430Z,24.39
2022-10-11T11:56:30.418Z,24.60
2022-10-11T11:57:30.455Z,24.67
2022-10-11T11:58:30.442Z,24.67
2022-10-11T11:59:30.400Z,24.60
2022-10-11T12:00:30.423Z,24.63
2022-10-11T12:01:31.699Z,24.68
2022-10-11T12:02:30.360Z,24.76
2022-10-11T12:03:30.429Z,24.82
2022-10-11T12:04:30.346Z,24.61
2022-10-11T12:05:30.364Z,24.59
2022-10-11T12:06:30.372Z,24.54
2022-10-11T12:07:30.358Z,24.47
2022-10-11T12:08:30.619Z,24.41
2022-10-11T12:09:30.363Z,24.04
2022-10-11T12:10:30.333Z,23.46
2022-10-11T12:11:34.645Z,23.57
2022-10-11T12:12:30.347Z,23.68
2022-10-11T12:13:32.591Z,23.86
2022-10-11T12:14:30.293Z,23.95
2022-10-11T12:15:30.586Z,23.71
2022-10-11T12:16:30.216Z,23.08
2022-10-11T12:17:30.185Z,22.47
2022-10-11T12:18:30.316Z,21.56
2022-10-11T12:19:30.247Z,20.71
2022-10-11T12:20:30.162Z,20.15
2022-10-11T12:21:30.171Z,19.84
2022-10-11T12:22:30.461Z,19.68
2022-10-11T12:23:30.415Z,19.63
2022-10-11T12:24:30.215Z,20.00
2022-10-11T12:25:30.134Z,20.64
2022-10-11T12:26:30.179Z,20.99
2022-10-11T12:27:30.114Z,21.38
2022-10-11T12:28:30.230Z,21.53
2022-10-11T12:29:30.488Z,21.63
2022-10-11T12:30:30.136Z,22.02
2022-10-11T12:31:30.082Z,22.38
2022-10-11T12:32:30.801Z,22.72
2022-10-11T12:33:30.891Z,22.89
2022-10-11T12:34:30.088Z,22.65
2022-10-11T12:35:29.989Z,22.04
2022-10-11T12:36:30.372Z,21.41
2022-10-11T12:37:30.005Z,20.91
2022-10-11T12:38:29.975Z,20.18
2022-10-11T12:39:30.057Z,19.87
2022-10-11T12:40:30.016Z,19.50
2022-10-11T12:41:30.030Z,19.58
2022-10-11T12:42:29.974Z,19.51
2022-10-11T12:43:30.200Z,19.36
2022-10-11T12:44:29.908Z,19.15
2022-10-11T12:45:29.909Z,18.99
2022-10-11T12:46:30.086Z,18.84
2022-10-11T12:47:29.869Z,18.70
2022-10-11T12:48:34.870Z,18.54
2022-10-11T12:49:29.957Z,18.25
2022-10-11T12:50:29.841Z,17.97
2022-10-11T12:51:29.949Z,17.76
2022-10-11T12:52:29.830Z,17.57
2022-10-11T12:53:29.861Z,17.44
2022-10-11T12:54:33.318Z,17.32
2022-10-11T12:55:29.808Z,17.26
2022-10-11T12:56:29.767Z,17.06
2022-10-11T12:57:29.757Z,16.85
2022-10-11T12:58:29.752Z,17.00
2022-10-11T12:59:29.765Z,17.59
2022-10-11T13:00:29.802Z,18.24
2022-10-11T13:01:29.892Z,18.43
2022-10-11T13:02:30.036Z,18.34
2022-10-11T13:03:32.309Z,18.03
2022-10-11T13:04:29.705Z,17.81
2022-10-11T13:05:29.671Z,17.57
2022-10-11T13:06:29.705Z,17.36
2022-10-11T13:07:29.696Z,17.14
2022-10-11T13:08:29.747Z,16.98